Latest Weather Observations for Cerberus

IDV60801

Issued at 12:31 pm EST Tuesday 21 April 2015 (issued every 30 minutes, with the page automatically refreshed every 10 minutes)

About weather observations | Map of weather stations | Latest weather observations for VIC | Other Formats
Station Details ID: 086361 Name: CERBERUS Lat: -38.36 Lon: 145.18 Height: 12.69 m
Data from the previous 72 hours. | See also: Recent months at Cerberus
Date/Time
EST
Temp
°C
App
Temp
°C
Dew
Point
Rel
Hum
%
Delta-T
°C
Wind Press
QNH
hPa
Press
MSL
hPa
Rain
since 9 am
mm
Dir
 
Spd
km/h
Gust
km/h
Spd
kts
Gust
kts
21/12:30pm 16.0 13.2 8.7 62 3.7 NNE 13 20 7 11 1031.4 1031.4 0.0
21/12:00pm 16.0 13.2 8.7 62 3.7 NNE 13 22 7 12 1031.8 1031.8 0.0
21/11:30am 16.4 13.8 9.3 63 3.7 NNE 13 20 7 11 1032.2 1032.2 0.0
21/11:00am 16.0 14.1 9.0 63 3.6 NNE 9 17 5 9 1032.4 1032.4 0.0
21/10:30am 15.3 13.6 8.5 64 3.4 NNE 7 9 4 5 1032.6 1032.6 0.0
21/10:00am 14.4 12.7 7.7 64 3.3 ESE 6 9 3 5 1032.9 1032.9 0.0
21/09:30am 13.5 12.5 7.5 67 2.9 N 2 6 1 3 1033.3 1033.3 0.0
21/09:00am 12.1 11.1 8.9 81 1.6 N 4 6 2 3 1033.5 1033.5 0.0
21/08:30am 10.2 9.5 8.6 90 0.8 NNW 2 4 1 2 1033.8 1033.8 0.0
21/08:00am 7.9 6.7 6.5 91 0.6 NNW 2 4 1 2 1033.7 1033.7 0.0
21/07:30am 6.8 5.0 5.6 92 0.5 N 4 6 2 3 1033.7 1033.7 0.0
21/07:00am 5.0 3.2 3.7 91 0.5 N 2 6 1 3 1033.6 1033.6 0.0
21/06:30am 5.2 3.5 3.9 91 0.5 NNE 2 4 1 2 1033.4 1033.4 0.0
21/06:00am 3.9 2.3 2.6 91 0.5 CALM 0 0 0 0 1033.2 1033.2 0.0
21/05:30am 3.8 1.8 2.5 91 0.5 NNE 2 4 1 2 1033.0 1033.0 0.0
21/05:00am 3.3 1.2 1.8 90 0.6 NNE 2 4 1 2 1032.8 1032.8 0.0
21/04:30am 3.9 2.3 2.4 90 0.6 CALM 0 2 0 1 1032.8 1032.8 0.0
21/04:00am 3.8 2.2 2.2 89 0.6 CALM 0 2 0 1 1033.1 1033.1 0.0
21/03:30am 3.3 1.2 1.5 88 0.7 NNE 2 4 1 2 1033.2 1033.2 0.0
21/03:00am 3.9 1.9 2.1 88 0.7 NNE 2 4 1 2 1033.7 1033.7 0.0
21/02:30am 4.2 1.8 2.4 88 0.7 NNE 4 6 2 3 1033.9 1033.9 0.0
21/02:00am 4.4 2.8 2.4 87 0.8 CALM 0 0 0 0 1034.3 1034.3 0.0
21/01:30am 4.9 3.4 2.8 86 0.8 CALM 0 0 0 0 1034.4 1034.4 0.0
21/01:00am 5.4 3.5 3.1 85 0.9 NNE 2 4 1 2 1034.4 1034.4 0.0
21/12:30am 6.0 4.6 3.5 84 1.0 CALM 0 0 0 0 1034.6 1034.6 0.0
21/12:00am 6.4 4.6 3.6 82 1.2 NNE 2 2 1 1 1034.8 1034.8 0.0
 
Date/Time
EST
Temp
°C
App
Temp
°C
Dew
Point
Rel
Hum
%
Delta-T
°C
Wind Press
QNH
hPa
Press
MSL
hPa
Rain
since 9 am
mm
Dir
 
Spd
km/h
Gust
km/h
Spd
kts
Gust
kts
20/11:30pm 7.0 4.8 3.3 77 1.6 NNE 4 6 2 3 1034.9 1034.9 0.0
20/11:00pm 8.1 5.9 3.2 71 2.1 NNE 4 6 2 3 1035.0 1035.0 0.0
20/10:30pm 10.6 8.4 5.2 69 2.5 E 6 7 3 4 1035.3 1035.3 0.0
20/10:00pm 10.4 8.0 4.5 67 2.6 E 6 7 3 4 1035.5 1035.5 0.0
20/09:30pm 10.6 8.1 4.5 66 2.7 E 7 9 4 5 1035.6 1035.6 0.0
20/09:00pm 10.7 8.1 4.4 65 2.8 E 7 11 4 6 1035.6 1035.6 0.0
20/08:30pm 11.3 8.9 5.4 67 2.7 E 7 11 4 6 1035.5 1035.5 0.0
20/08:00pm 11.2 8.9 5.5 68 2.6 ESE 7 9 4 5 1035.6 1035.6 0.0
20/07:30pm 10.8 8.6 5.3 69 2.5 E 6 9 3 5 1035.5 1035.5 0.0
20/07:00pm 10.8 8.4 5.1 68 2.6 ENE 7 11 4 6 1035.5 1035.5 0.0
20/06:30pm 11.4 9.0 5.3 66 2.8 NE 7 11 4 6 1035.6 1035.6 0.0
20/06:00pm 11.7 8.8 4.9 63 3.1 ENE 9 15 5 8 1035.4 1035.4 0.0
20/05:30pm 12.2 9.3 4.9 61 3.3 SSE 9 15 5 8 1035.2 1035.2 0.0
20/05:00pm 13.3 10.4 4.7 56 3.9 ENE 9 15 5 8 1035.0 1035.0 0.0
20/04:30pm 13.7 9.9 3.8 51 4.5 ENE 13 22 7 12 1035.0 1035.0 0.0
20/04:00pm 14.5 10.3 3.6 48 4.9 ENE 15 24 8 13 1035.0 1035.0 0.0
20/03:30pm 14.9 10.8 4.3 49 4.9 ENE 15 26 8 14 1035.2 1035.2 0.0
20/03:00pm 14.9 10.3 3.7 47 5.1 ENE 17 32 9 17 1035.0 1035.0 0.0
20/02:30pm 15.5 10.9 3.9 46 5.3 ENE 17 24 9 13 1035.1 1035.1 0.0
20/02:00pm 15.2 10.1 3.0 44 5.4 E 19 28 10 15 1035.2 1035.2 0.0
20/01:30pm 15.8 10.9 3.9 45 5.5 E 19 30 10 16 1035.3 1035.3 0.0
20/01:00pm 15.6 10.7 4.3 47 5.2 E 19 30 10 16 1035.5 1035.5 0.0
20/12:30pm 15.4 10.8 3.5 45 5.4 E 17 28 9 15 1035.9 1035.9 0.0
20/12:00pm 15.1 10.9 3.6 46 5.2 ENE 15 24 8 13 1036.4 1036.4 0.0
20/11:30am 15.0 10.4 3.5 46 5.2 ENE 17 24 9 13 1036.9 1036.9 0.0
20/11:00am 14.3 10.1 3.7 49 4.8 E 15 26 8 14 1037.0 1037.0 0.0
20/10:30am 14.6 10.9 4.6 51 4.6 E 13 20 7 11 1037.1 1037.1 0.0
20/10:00am 14.6 11.4 5.1 53 4.4 SE 11 20 6 11 1037.1 1037.1 0.0
20/09:30am 13.9 11.9 6.3 60 3.6 ENE 6 9 3 5 1037.1 1037.1 0.0
20/09:00am 13.0 10.8 6.4 64 3.1 N 7 11 4 6 1037.3 1037.3 0.4
20/08:30am 12.3 10.4 6.6 68 2.7 NNE 6 9 3 5 1037.2 1037.2 0.4
20/08:00am 10.1 8.4 5.7 74 2.0 N 4 4 2 2 1037.0 1037.0 0.4
20/07:30am 9.3 7.3 4.3 71 2.2 N 4 6 2 3 1036.7 1036.7 0.4
20/07:00am 10.3 8.0 4.7 68 2.5 NNE 6 7 3 4 1036.5 1036.5 0.4
20/06:30am 10.1 7.5 4.3 67 2.6 ESE 7 13 4 7 1036.1 1036.1 0.4
20/06:00am 9.8 7.2 4.0 67 2.5 ESE 7 11 4 6 1035.9 1035.9 0.4
20/05:30am 10.2 7.8 4.1 66 2.7 ESE 6 13 3 7 1035.6 1035.6 0.4
20/05:00am 10.1 7.4 3.6 64 2.8 ESE 7 15 4 8 1035.4 1035.4 0.4
20/04:30am 10.4 7.3 3.7 63 2.9 ESE 9 15 5 8 1035.1 1035.1 0.4
20/04:00am 10.1 7.0 3.6 64 2.8 ESE 9 13 5 7 1035.0 1035.0 0.4
20/03:30am 10.0 7.1 2.4 59 3.2 ESE 7 11 4 6 1034.7 1034.7 0.4
20/03:00am 10.4 7.1 2.3 57 3.4 SE 9 15 5 8 1034.8 1034.8 0.4
20/02:30am 10.5 7.1 2.1 56 3.6 ESE 9 13 5 7 1035.0 1035.0 0.4
20/02:00am 10.9 7.6 2.7 57 3.5 ESE 9 15 5 8 1035.0 1035.0 0.4
20/01:30am 11.0 8.2 3.1 58 3.4 ESE 7 13 4 7 1035.0 1035.0 0.4
20/01:00am 11.3 7.3 2.9 56 3.6 ESE 13 26 7 14 1035.0 1035.0 0.4
20/12:30am 11.3 8.1 3.1 57 3.6 ESE 9 19 5 10 1035.1 1035.1 0.4
20/12:00am 11.4 7.3 2.4 54 3.8 SE 13 20 7 11 1035.1 1035.1 0.4
 
Date/Time
EST
Temp
°C
App
Temp
°C
Dew
Point
Rel
Hum
%
Delta-T
°C
Wind Press
QNH
hPa
Press
MSL
hPa
Rain
since 9 am
mm
Dir
 
Spd
km/h
Gust
km/h
Spd
kts
Gust
kts
19/11:30pm 12.1 7.9 3.6 56 3.8 SE 15 24 8 13 1035.1 1035.1 0.4
19/11:00pm 11.8 7.3 2.3 52 4.0 SE 15 24 8 13 1035.1 1035.1 0.4
19/10:30pm 11.8 7.2 1.7 50 4.3 SE 15 28 8 15 1034.9 1034.9 0.4
19/10:00pm 11.7 7.2 1.9 51 4.1 SE 15 32 8 17 1034.9 1034.9 0.4
19/09:30pm 12.0 6.8 2.5 52 4.1 SE 19 28 10 15 1034.5 1034.5 0.4
19/09:00pm 12.0 7.0 1.6 49 4.4 SE 17 28 9 15 1034.3 1034.3 0.4
19/08:30pm 11.8 6.4 1.2 48 4.5 SE 19 28 10 15 1034.0 1034.0 0.4
19/08:00pm 11.9 6.5 1.0 47 4.5 SE 19 30 10 16 1033.5 1033.5 0.4
19/07:30pm 11.9 6.3 1.5 49 4.4 SE 20 30 11 16 1033.2 1033.2 0.4
19/07:00pm 12.0 6.2 2.5 52 4.1 SE 22 33 12 18 1032.8 1032.8 0.4
19/06:30pm 12.1 6.9 3.6 56 3.8 SSE 20 37 11 20 1032.2 1032.2 0.4
19/06:00pm 12.2 6.8 2.4 51 4.2 SSE 20 28 11 15 1031.6 1031.6 0.4
19/05:30pm 12.4 6.3 2.6 51 4.3 SSE 24 33 13 18 1031.0 1031.0 0.4
19/05:00pm 12.4 6.1 1.7 48 4.5 SSE 24 37 13 20 1030.9 1030.9 0.4
19/04:30pm 12.9 6.6 3.6 53 4.2 SSE 26 41 14 22 1030.6 1030.6 0.4
19/04:00pm 12.8 6.3 2.6 50 4.4 SSE 26 37 14 20 1030.0 1030.0 0.4
19/03:30pm 13.2 6.9 1.8 46 4.9 SSE 24 39 13 21 1029.8 1029.8 0.4
19/03:00pm 14.1 8.6 4.1 51 4.5 SSE 22 37 12 20 1029.6 1029.6 0.4
19/02:30pm 13.9 8.4 3.9 51 4.5 SE 22 35 12 19 1029.4 1029.4 0.4
19/02:00pm 12.3 8.1 5.5 63 3.1 SSE 17 26 9 14 1029.3 1029.3 0.4
19/01:30pm 11.2 5.5 4.7 64 2.9 SSE 24 39 13 21 1029.1 1029.1 0.4
19/01:00pm 9.8 5.7 6.0 77 1.7 SSE 17 37 9 20 1029.0 1029.0 0.4
19/12:30pm 10.4 4.3 6.4 76 1.9 S 28 43 15 23 1028.7 1028.7 0.2
19/12:00pm 14.9 9.8 4.3 49 4.9 SE 20 35 11 19 1028.1 1028.1 0.0
19/11:30am 13.1 6.8 3.5 52 4.3 SE 26 39 14 21 1027.9 1027.9 0.0
19/11:00am 14.1 7.9 4.4 52 4.4 SE 26 41 14 22 1027.4 1027.4 0.0
19/10:30am 12.8 6.7 5.0 59 3.6 SE 26 46 14 25 1026.9 1026.9 0.0
19/10:00am 12.6 7.5 5.8 63 3.2 SE 22 41 12 22 1026.9 1026.9 0.0
19/09:30am 12.4 7.1 6.7 68 2.7 SSE 24 43 13 23 1026.3 1026.3 0.0
19/09:00am 12.0 4.7 5.4 64 3.0 SSE 33 56 18 30 1025.4 1025.4 5.4
19/08:49am 12.3 6.2 6.4 67 2.8 SSE 28 50 15 27 1025.2 1025.2 5.4
19/08:30am 12.6 7.2 6.2 65 3.0 SE 24 43 13 23 1024.9 1024.9 5.4
19/08:00am 12.3 6.4 5.7 64 3.1 SSE 26 43 14 23 1024.1 1024.1 5.4
19/07:30am 11.3 5.9 6.4 72 2.3 S 24 46 13 25 1023.4 1023.4 5.2
19/07:24am 10.9 5.3 5.2 68 2.6 S 24 46 13 25 1023.3 1023.3 5.2
19/07:22am 11.3 5.7 5.6 68 2.6 SSE 24 46 13 25 1023.2 1023.2 5.2
19/07:00am 11.1 6.0 6.0 71 2.4 SE 22 43 12 23 1022.7 1022.7 5.2
19/06:30am 11.4 6.0 6.3 71 2.4 SSE 24 39 13 21 1022.0 1021.9 5.2
19/06:03am 11.0 4.9 6.7 75 2.0 SSE 28 50 15 27 1021.4 1021.3 5.0
19/06:00am 11.6 6.6 6.3 70 2.5 SSE 22 50 12 27 1021.4 1021.3 5.0
19/05:30am 11.1 6.8 6.8 75 2.0 SSE 19 32 10 17 1021.1 1021.0 5.0
19/05:00am 9.5 7.0 6.4 81 1.4 SSW 9 20 5 11 1020.6 1020.5 5.0
19/04:30am 9.5 6.7 6.9 84 1.2 SSW 11 22 6 12 1020.1 1020.0 4.4
19/04:14am 10.0 3.9 6.7 80 1.5 SSW 28 43 15 23 1019.9 1019.8 3.6
19/04:00am 11.1 7.4 6.3 72 2.2 S 15 20 8 11 1019.5 1019.4 3.2
19/03:30am 9.8 5.3 6.9 82 1.4 SSE 20 39 11 21 1019.1 1019.0 3.2
19/03:14am 11.2 7.6 6.7 74 2.1 WSW 15 41 8 22 1019.0 1018.9 3.0
19/03:00am 10.7 8.2 6.5 75 2.0 WSW 9 15 5 8 1018.7 1018.6 3.0
19/02:30am 10.2 7.3 6.7 79 1.6 WSW 11 15 6 8 1018.5 1018.4 3.0
19/02:00am 10.1 7.2 6.6 79 1.6 SW 11 20 6 11 1018.5 1018.4 3.0
19/01:30am 10.2 7.4 7.1 81 1.5 SW 11 20 6 11 1018.8 1018.7 3.0
19/01:00am 11.1 7.4 6.5 73 2.2 SW 15 22 8 12 1018.2 1018.1 2.6
19/12:30am 11.1 8.5 7.8 80 1.6 SW 11 17 6 9 1017.6 1017.5 2.6
19/12:00am 11.6 9.6 8.8 83 1.4 W 9 13 5 7 1017.5 1017.4 2.6
 
Date/Time
EST
Temp
°C
App
Temp
°C
Dew
Point
Rel
Hum
%
Delta-T
°C
Wind Press
QNH
hPa
Press
MSL
hPa
Rain
since 9 am
mm
Dir
 
Spd
km/h
Gust
km/h
Spd
kts
Gust
kts
18/11:30pm 11.7 9.3 9.9 89 0.9 WNW 13 19 7 10 1017.4 1017.3 2.6
18/11:00pm 11.6 9.5 9.7 88 1.0 W 11 19 6 10 1017.1 1017.0 2.6
18/10:30pm 11.2 9.8 9.5 89 0.9 W 7 13 4 7 1017.2 1017.1 2.6
18/10:00pm 11.0 9.7 9.3 89 0.8 W 6 11 3 6 1016.9 1016.8 1.8
18/09:30pm 10.9 9.4 9.2 89 0.8 WNW 7 9 4 5 1016.5 1016.4 1.6
18/09:00pm 10.8 8.9 9.1 89 0.8 SW 9 15 5 8 1016.1 1016.0 1.2
18/08:30pm 10.7 8.8 9.0 89 0.8 SSW 9 15 5 8 1015.7 1015.6 1.2
18/08:00pm 11.0 7.0 8.9 87 1.0 S 20 35 11 19 1015.4 1015.3 0.4
18/07:30pm 11.7 7.4 9.4 86 1.2 S 22 35 12 19 1014.6 1014.5 0.0
18/07:00pm 12.3 7.4 10.0 86 1.2 S 26 35 14 19 1013.8 1013.7 0.0
18/06:30pm 13.8 10.0 11.0 83 1.5 SSE 22 35 12 19 1012.9 1012.9 0.0
18/06:00pm 14.2 9.2 10.8 80 1.8 SSE 28 41 15 22 1012.5 1012.5 0.0
18/05:30pm 14.9 10.2 10.7 76 2.2 S 26 48 14 26 1011.9 1011.9 0.0
18/05:24pm 17.5 15.0 9.7 60 4.1 W 13 43 7 23 1011.4 1011.4 0.0
18/05:00pm 18.5 17.1 9.0 54 5.0 NW 6 11 3 6 1010.2 1010.2 0.0
18/04:30pm 18.9 16.4 8.3 50 5.5 WNW 11 22 6 12 1010.0 1010.0 0.0
18/04:00pm 18.9 16.7 8.0 49 5.6 NW 9 15 5 8 1010.0 1010.0 0.0
18/03:30pm 19.2 16.7 8.2 49 5.7 NW 11 22 6 12 1009.9 1009.9 0.0
18/03:00pm 18.5 15.3 8.5 52 5.2 WNW 15 28 8 15 1010.3 1010.3 0.0
18/02:30pm 18.6 15.1 8.6 52 5.2 NW 17 28 9 15 1010.7 1010.7 0.0
18/02:00pm 17.9 13.3 8.2 53 5.0 W 22 32 12 17 1010.9 1010.9 0.0
18/01:30pm 18.2 14.2 9.0 55 4.8 W 20 32 11 17 1011.2 1011.2 0.0
18/01:00pm 17.0 13.3 9.4 61 4.0 WSW 19 32 10 17 1011.5 1011.5 0.0

Other Formats:

Comma delimited format used in spreadsheet applications
http://www.bom.gov.au/fwo/IDV60801/IDV60801.94898.axf

JavaScript Object Notation format (JSON) in row-major order
http://www.bom.gov.au/fwo/IDV60801/IDV60801.94898.json